sensor_id;sensor_type;location;lat;lon;timestamp;P1;durP1;ratioP1;P2;durP2;ratioP2
21886;SDS011;11108;49.988;8.182;2023-02-28T00:01:01;0.60;;;0.60;;
21886;SDS011;11108;49.988;8.182;2023-02-28T00:03:32;0.97;;;0.97;;
21886;SDS011;11108;49.988;8.182;2023-02-28T00:06:00;0.90;;;0.90;;
21886;SDS011;11108;49.988;8.182;2023-02-28T00:08:26;0.80;;;0.80;;
21886;SDS011;11108;49.988;8.182;2023-02-28T00:10:51;0.97;;;0.97;;
21886;SDS011;11108;49.988;8.182;2023-02-28T00:13:17;1.10;;;1.00;;
21886;SDS011;11108;49.988;8.182;2023-02-28T00:15:42;0.90;;;0.90;;
21886;SDS011;11108;49.988;8.182;2023-02-28T00:18:07;1.10;;;1.00;;
21886;SDS011;11108;49.988;8.182;2023-02-28T00:20:32;1.57;;;0.90;;
21886;SDS011;11108;49.988;8.182;2023-02-28T00:22:58;0.80;;;0.80;;
21886;SDS011;11108;49.988;8.182;2023-02-28T00:25:24;2.03;;;1.00;;
21886;SDS011;11108;49.988;8.182;2023-02-28T00:27:49;1.10;;;1.00;;
21886;SDS011;11108;49.988;8.182;2023-02-28T00:30:17;1.50;;;0.70;;
21886;SDS011;11108;49.988;8.182;2023-02-28T00:32:42;1.00;;;1.00;;
21886;SDS011;11108;49.988;8.182;2023-02-28T00:35:08;0.70;;;0.70;;
21886;SDS011;11108;49.988;8.182;2023-02-28T00:37:34;0.90;;;0.90;;
21886;SDS011;11108;49.988;8.182;2023-02-28T00:39:59;0.50;;;0.50;;
21886;SDS011;11108;49.988;8.182;2023-02-28T00:42:24;0.60;;;0.60;;
21886;SDS011;11108;49.988;8.182;2023-02-28T00:44:49;0.80;;;0.80;;
21886;SDS011;11108;49.988;8.182;2023-02-28T00:47:14;0.60;;;0.60;;
21886;SDS011;11108;49.988;8.182;2023-02-28T00:49:40;0.60;;;0.60;;
21886;SDS011;11108;49.988;8.182;2023-02-28T00:52:05;0.50;;;0.50;;
21886;SDS011;11108;49.988;8.182;2023-02-28T00:54:30;0.90;;;0.90;;
21886;SDS011;11108;49.988;8.182;2023-02-28T00:56:56;0.97;;;0.97;;
21886;SDS011;11108;49.988;8.182;2023-02-28T00:59:21;0.60;;;0.60;;
21886;SDS011;11108;49.988;8.182;2023-02-28T01:01:46;0.70;;;0.70;;
21886;SDS011;11108;49.988;8.182;2023-02-28T01:04:12;0.90;;;0.90;;
21886;SDS011;11108;49.988;8.182;2023-02-28T01:06:37;0.70;;;0.70;;
21886;SDS011;11108;49.988;8.182;2023-02-28T01:09:03;0.80;;;0.80;;
21886;SDS011;11108;49.988;8.182;2023-02-28T01:11:29;0.90;;;0.90;;
21886;SDS011;11108;49.988;8.182;2023-02-28T01:13:54;0.70;;;0.70;;
21886;SDS011;11108;49.988;8.182;2023-02-28T01:16:19;0.70;;;0.70;;
21886;SDS011;11108;49.988;8.182;2023-02-28T01:18:45;0.90;;;0.90;;
21886;SDS011;11108;49.988;8.182;2023-02-28T01:21:14;0.70;;;0.70;;
21886;SDS011;11108;49.988;8.182;2023-02-28T01:23:39;0.70;;;0.70;;
21886;SDS011;11108;49.988;8.182;2023-02-28T01:26:06;0.70;;;0.70;;
21886;SDS011;11108;49.988;8.182;2023-02-28T01:28:31;0.70;;;0.70;;
21886;SDS011;11108;49.988;8.182;2023-02-28T01:30:56;0.80;;;0.80;;
21886;SDS011;11108;49.988;8.182;2023-02-28T01:33:21;2.30;;;0.90;;
21886;SDS011;11108;49.988;8.182;2023-02-28T01:35:47;0.80;;;0.80;;
21886;SDS011;11108;49.988;8.182;2023-02-28T01:38:12;0.57;;;0.57;;
21886;SDS011;11108;49.988;8.182;2023-02-28T01:40:37;0.70;;;0.70;;
21886;SDS011;11108;49.988;8.182;2023-02-28T01:43:02;0.73;;;0.73;;
21886;SDS011;11108;49.988;8.182;2023-02-28T01:45:31;0.73;;;0.73;;
21886;SDS011;11108;49.988;8.182;2023-02-28T01:48:06;0.73;;;0.73;;
21886;SDS011;11108;49.988;8.182;2023-02-28T01:50:34;1.17;;;0.87;;
21886;SDS011;11108;49.988;8.182;2023-02-28T01:53:02;1.37;;;0.90;;
21886;SDS011;11108;49.988;8.182;2023-02-28T01:55:29;0.83;;;0.83;;
21886;SDS011;11108;49.988;8.182;2023-02-28T01:57:56;0.50;;;0.50;;
21886;SDS011;11108;49.988;8.182;2023-02-28T02:00:23;0.80;;;0.80;;
21886;SDS011;11108;49.988;8.182;2023-02-28T02:02:50;0.60;;;0.60;;
21886;SDS011;11108;49.988;8.182;2023-02-28T02:05:17;0.80;;;0.80;;
21886;SDS011;11108;49.988;8.182;2023-02-28T02:07:43;0.50;;;0.50;;
21886;SDS011;11108;49.988;8.182;2023-02-28T02:10:16;0.80;;;0.80;;
21886;SDS011;11108;49.988;8.182;2023-02-28T02:12:46;0.60;;;0.60;;
21886;SDS011;11108;49.988;8.182;2023-02-28T02:15:19;0.60;;;0.60;;
21886;SDS011;11108;49.988;8.182;2023-02-28T02:17:51;0.63;;;0.63;;
21886;SDS011;11108;49.988;8.182;2023-02-28T02:25:35;0.60;;;0.60;;
21886;SDS011;11108;49.988;8.182;2023-02-28T02:28:22;0.77;;;0.60;;
21886;SDS011;11108;49.988;8.182;2023-02-28T02:36:04;0.70;;;0.70;;
21886;SDS011;11108;49.988;8.182;2023-02-28T02:41:18;1.17;;;0.80;;
21886;SDS011;11108;49.988;8.182;2023-02-28T02:43:46;0.57;;;0.57;;
21886;SDS011;11108;49.988;8.182;2023-02-28T02:48:50;1.00;;;1.00;;
21886;SDS011;11108;49.988;8.182;2023-02-28T02:51:17;0.50;;;0.50;;
21886;SDS011;11108;49.988;8.182;2023-02-28T02:54:17;0.70;;;0.70;;
21886;SDS011;11108;49.988;8.182;2023-02-28T02:56:35;0.80;;;0.80;;
21886;SDS011;11108;49.988;8.182;2023-02-28T02:59:02;0.80;;;0.80;;
21886;SDS011;11108;49.988;8.182;2023-02-28T03:01:27;0.80;;;0.80;;
21886;SDS011;11108;49.988;8.182;2023-02-28T03:03:58;1.20;;;0.70;;
21886;SDS011;11108;49.988;8.182;2023-02-28T03:06:24;0.70;;;0.70;;
21886;SDS011;11108;49.988;8.182;2023-02-28T03:08:50;0.57;;;0.57;;
21886;SDS011;11108;49.988;8.182;2023-02-28T03:11:15;1.27;;;1.00;;
21886;SDS011;11108;49.988;8.182;2023-02-28T03:21:43;0.70;;;0.70;;
21886;SDS011;11108;49.988;8.182;2023-02-28T03:26:42;0.70;;;0.70;;
21886;SDS011;11108;49.988;8.182;2023-02-28T03:31:52;0.90;;;0.90;;
21886;SDS011;11108;49.988;8.182;2023-02-28T03:34:36;0.70;;;0.70;;
21886;SDS011;11108;49.988;8.182;2023-02-28T03:37:07;0.60;;;0.60;;
21886;SDS011;11108;49.988;8.182;2023-02-28T03:42:03;0.93;;;0.60;;
21886;SDS011;11108;49.988;8.182;2023-02-28T03:44:32;0.77;;;0.77;;
21886;SDS011;11108;49.988;8.182;2023-02-28T03:47:00;0.60;;;0.60;;
21886;SDS011;11108;49.988;8.182;2023-02-28T03:49:30;0.83;;;0.60;;
21886;SDS011;11108;49.988;8.182;2023-02-28T03:51:56;0.70;;;0.70;;
21886;SDS011;11108;49.988;8.182;2023-02-28T03:54:28;0.60;;;0.60;;
21886;SDS011;11108;49.988;8.182;2023-02-28T03:57:06;0.67;;;0.67;;
21886;SDS011;11108;49.988;8.182;2023-02-28T03:59:46;0.70;;;0.70;;
21886;SDS011;11108;49.988;8.182;2023-02-28T04:02:12;0.60;;;0.60;;
21886;SDS011;11108;49.988;8.182;2023-02-28T04:04:38;0.93;;;0.93;;
21886;SDS011;11108;49.988;8.182;2023-02-28T04:07:07;0.50;;;0.50;;
21886;SDS011;11108;49.988;8.182;2023-02-28T04:09:32;0.50;;;0.50;;
21886;SDS011;11108;49.988;8.182;2023-02-28T04:11:57;0.50;;;0.50;;
21886;SDS011;11108;49.988;8.182;2023-02-28T04:14:23;0.53;;;0.53;;
21886;SDS011;11108;49.988;8.182;2023-02-28T04:16:48;0.60;;;0.60;;
21886;SDS011;11108;49.988;8.182;2023-02-28T04:19:14;0.70;;;0.70;;
21886;SDS011;11108;49.988;8.182;2023-02-28T04:21:52;0.60;;;0.50;;
21886;SDS011;11108;49.988;8.182;2023-02-28T04:24:18;0.60;;;0.60;;
21886;SDS011;11108;49.988;8.182;2023-02-28T04:26:45;0.67;;;0.67;;
21886;SDS011;11108;49.988;8.182;2023-02-28T04:29:11;0.50;;;0.50;;
21886;SDS011;11108;49.988;8.182;2023-02-28T04:31:36;0.47;;;0.47;;
21886;SDS011;11108;49.988;8.182;2023-02-28T04:34:02;0.50;;;0.50;;
21886;SDS011;11108;49.988;8.182;2023-02-28T04:36:27;0.63;;;0.53;;
21886;SDS011;11108;49.988;8.182;2023-02-28T04:38:53;0.70;;;0.70;;
21886;SDS011;11108;49.988;8.182;2023-02-28T04:41:18;0.63;;;0.63;;
21886;SDS011;11108;49.988;8.182;2023-02-28T04:43:43;0.70;;;0.70;;
21886;SDS011;11108;49.988;8.182;2023-02-28T04:46:08;0.50;;;0.50;;
21886;SDS011;11108;49.988;8.182;2023-02-28T04:48:35;0.60;;;0.60;;
21886;SDS011;11108;49.988;8.182;2023-02-28T04:51:04;0.60;;;0.60;;
21886;SDS011;11108;49.988;8.182;2023-02-28T04:53:30;0.67;;;0.67;;
21886;SDS011;11108;49.988;8.182;2023-02-28T04:55:56;0.50;;;0.50;;
21886;SDS011;11108;49.988;8.182;2023-02-28T04:58:21;0.60;;;0.60;;
21886;SDS011;11108;49.988;8.182;2023-02-28T05:00:48;0.80;;;0.80;;
21886;SDS011;11108;49.988;8.182;2023-02-28T05:03:13;0.50;;;0.50;;
21886;SDS011;11108;49.988;8.182;2023-02-28T05:05:39;0.63;;;0.63;;
21886;SDS011;11108;49.988;8.182;2023-02-28T05:08:04;0.60;;;0.60;;
21886;SDS011;11108;49.988;8.182;2023-02-28T05:10:30;1.00;;;0.67;;
21886;SDS011;11108;49.988;8.182;2023-02-28T05:12:55;0.80;;;0.60;;
21886;SDS011;11108;49.988;8.182;2023-02-28T05:15:20;0.60;;;0.60;;
21886;SDS011;11108;49.988;8.182;2023-02-28T05:17:46;0.40;;;0.40;;
21886;SDS011;11108;49.988;8.182;2023-02-28T05:20:11;0.60;;;0.60;;
21886;SDS011;11108;49.988;8.182;2023-02-28T05:22:38;0.60;;;0.60;;
21886;SDS011;11108;49.988;8.182;2023-02-28T05:25:04;0.60;;;0.60;;
21886;SDS011;11108;49.988;8.182;2023-02-28T05:27:30;0.50;;;0.50;;
21886;SDS011;11108;49.988;8.182;2023-02-28T05:29:55;0.90;;;0.60;;
21886;SDS011;11108;49.988;8.182;2023-02-28T05:32:21;0.70;;;0.70;;
21886;SDS011;11108;49.988;8.182;2023-02-28T05:34:46;0.47;;;0.47;;
21886;SDS011;11108;49.988;8.182;2023-02-28T05:37:14;0.63;;;0.60;;
21886;SDS011;11108;49.988;8.182;2023-02-28T05:39:40;0.87;;;0.77;;
21886;SDS011;11108;49.988;8.182;2023-02-28T05:42:05;0.93;;;0.50;;
21886;SDS011;11108;49.988;8.182;2023-02-28T05:44:31;0.43;;;0.43;;
21886;SDS011;11108;49.988;8.182;2023-02-28T05:46:56;0.60;;;0.60;;
21886;SDS011;11108;49.988;8.182;2023-02-28T05:49:23;0.53;;;0.53;;
21886;SDS011;11108;49.988;8.182;2023-02-28T05:51:48;0.50;;;0.50;;
21886;SDS011;11108;49.988;8.182;2023-02-28T05:54:13;0.53;;;0.53;;
21886;SDS011;11108;49.988;8.182;2023-02-28T05:56:38;1.17;;;0.60;;
21886;SDS011;11108;49.988;8.182;2023-02-28T05:59:05;0.60;;;0.60;;
21886;SDS011;11108;49.988;8.182;2023-02-28T06:01:32;0.60;;;0.57;;
21886;SDS011;11108;49.988;8.182;2023-02-28T06:03:58;0.47;;;0.47;;
21886;SDS011;11108;49.988;8.182;2023-02-28T06:06:23;0.40;;;0.40;;
21886;SDS011;11108;49.988;8.182;2023-02-28T06:08:48;0.57;;;0.57;;
21886;SDS011;11108;49.988;8.182;2023-02-28T06:11:13;0.50;;;0.50;;
21886;SDS011;11108;49.988;8.182;2023-02-28T06:13:39;0.37;;;0.37;;
21886;SDS011;11108;49.988;8.182;2023-02-28T06:16:04;0.80;;;0.70;;
21886;SDS011;11108;49.988;8.182;2023-02-28T06:18:29;0.57;;;0.57;;
21886;SDS011;11108;49.988;8.182;2023-02-28T06:20:55;0.60;;;0.60;;
21886;SDS011;11108;49.988;8.182;2023-02-28T06:23:20;0.70;;;0.70;;
21886;SDS011;11108;49.988;8.182;2023-02-28T06:25:46;0.50;;;0.50;;
21886;SDS011;11108;49.988;8.182;2023-02-28T06:28:11;0.43;;;0.43;;
21886;SDS011;11108;49.988;8.182;2023-02-28T06:30:37;0.87;;;0.60;;
21886;SDS011;11108;49.988;8.182;2023-02-28T06:33:02;1.03;;;0.60;;
21886;SDS011;11108;49.988;8.182;2023-02-28T06:35:27;0.40;;;0.40;;
21886;SDS011;11108;49.988;8.182;2023-02-28T06:37:52;1.17;;;0.67;;
21886;SDS011;11108;49.988;8.182;2023-02-28T06:40:17;0.73;;;0.60;;
21886;SDS011;11108;49.988;8.182;2023-02-28T06:42:43;0.50;;;0.50;;
21886;SDS011;11108;49.988;8.182;2023-02-28T06:45:08;1.50;;;0.40;;
21886;SDS011;11108;49.988;8.182;2023-02-28T06:47:34;1.07;;;0.40;;
21886;SDS011;11108;49.988;8.182;2023-02-28T06:50:00;1.87;;;0.80;;
21886;SDS011;11108;49.988;8.182;2023-02-28T06:52:26;0.40;;;0.40;;
21886;SDS011;11108;49.988;8.182;2023-02-28T06:54:51;1.73;;;0.53;;
21886;SDS011;11108;49.988;8.182;2023-02-28T06:57:24;0.60;;;0.50;;
21886;SDS011;11108;49.988;8.182;2023-02-28T06:59:50;0.57;;;0.57;;
21886;SDS011;11108;49.988;8.182;2023-02-28T07:02:15;0.77;;;0.50;;
21886;SDS011;11108;49.988;8.182;2023-02-28T07:04:40;0.50;;;0.50;;
21886;SDS011;11108;49.988;8.182;2023-02-28T07:07:09;0.70;;;0.63;;
21886;SDS011;11108;49.988;8.182;2023-02-28T07:09:42;0.47;;;0.47;;
21886;SDS011;11108;49.988;8.182;2023-02-28T07:12:09;2.53;;;0.67;;
21886;SDS011;11108;49.988;8.182;2023-02-28T07:14:36;0.60;;;0.60;;
21886;SDS011;11108;49.988;8.182;2023-02-28T07:17:01;0.63;;;0.63;;
21886;SDS011;11108;49.988;8.182;2023-02-28T07:19:26;0.53;;;0.47;;
21886;SDS011;11108;49.988;8.182;2023-02-28T07:21:51;0.60;;;0.60;;
21886;SDS011;11108;49.988;8.182;2023-02-28T07:24:17;0.57;;;0.57;;
21886;SDS011;11108;49.988;8.182;2023-02-28T07:26:42;3.50;;;0.70;;
21886;SDS011;11108;49.988;8.182;2023-02-28T07:29:08;0.87;;;0.50;;
21886;SDS011;11108;49.988;8.182;2023-02-28T07:31:33;0.50;;;0.50;;
21886;SDS011;11108;49.988;8.182;2023-02-28T07:33:58;0.70;;;0.70;;
21886;SDS011;11108;49.988;8.182;2023-02-28T07:36:23;1.37;;;0.57;;
21886;SDS011;11108;49.988;8.182;2023-02-28T07:38:49;0.60;;;0.60;;
21886;SDS011;11108;49.988;8.182;2023-02-28T07:41:15;1.90;;;0.80;;
21886;SDS011;11108;49.988;8.182;2023-02-28T07:43:40;3.57;;;0.90;;
21886;SDS011;11108;49.988;8.182;2023-02-28T07:46:09;3.47;;;1.07;;
21886;SDS011;11108;49.988;8.182;2023-02-28T07:48:35;1.43;;;1.30;;
21886;SDS011;11108;49.988;8.182;2023-02-28T07:51:01;1.43;;;1.10;;
21886;SDS011;11108;49.988;8.182;2023-02-28T07:53:26;2.80;;;0.90;;
21886;SDS011;11108;49.988;8.182;2023-02-28T07:55:59;1.13;;;0.80;;
21886;SDS011;11108;49.988;8.182;2023-02-28T07:58:25;0.87;;;0.80;;
21886;SDS011;11108;49.988;8.182;2023-02-28T08:00:50;1.83;;;1.10;;
21886;SDS011;11108;49.988;8.182;2023-02-28T08:03:19;1.27;;;0.83;;
21886;SDS011;11108;49.988;8.182;2023-02-28T08:05:45;2.77;;;1.33;;
21886;SDS011;11108;49.988;8.182;2023-02-28T08:08:11;3.13;;;0.90;;
21886;SDS011;11108;49.988;8.182;2023-02-28T08:10:39;3.57;;;0.97;;
21886;SDS011;11108;49.988;8.182;2023-02-28T08:13:04;2.10;;;1.20;;
21886;SDS011;11108;49.988;8.182;2023-02-28T08:15:29;4.13;;;1.07;;
21886;SDS011;11108;49.988;8.182;2023-02-28T08:17:54;4.13;;;1.13;;
21886;SDS011;11108;49.988;8.182;2023-02-28T08:20:21;5.50;;;0.90;;
21886;SDS011;11108;49.988;8.182;2023-02-28T08:22:46;0.73;;;0.70;;
21886;SDS011;11108;49.988;8.182;2023-02-28T08:25:11;2.27;;;1.07;;
21886;SDS011;11108;49.988;8.182;2023-02-28T08:27:37;2.37;;;0.90;;
21886;SDS011;11108;49.988;8.182;2023-02-28T08:30:02;1.07;;;0.63;;
21886;SDS011;11108;49.988;8.182;2023-02-28T08:32:28;0.70;;;0.70;;
21886;SDS011;11108;49.988;8.182;2023-02-28T08:34:53;2.93;;;0.67;;
21886;SDS011;11108;49.988;8.182;2023-02-28T08:37:18;4.37;;;0.70;;
21886;SDS011;11108;49.988;8.182;2023-02-28T08:39:43;1.70;;;0.70;;
21886;SDS011;11108;49.988;8.182;2023-02-28T08:42:08;0.70;;;0.70;;
21886;SDS011;11108;49.988;8.182;2023-02-28T08:44:34;1.73;;;0.77;;
21886;SDS011;11108;49.988;8.182;2023-02-28T08:46:59;2.37;;;0.73;;
21886;SDS011;11108;49.988;8.182;2023-02-28T08:49:24;0.83;;;0.80;;
21886;SDS011;11108;49.988;8.182;2023-02-28T08:51:49;2.03;;;1.00;;
21886;SDS011;11108;49.988;8.182;2023-02-28T08:54:15;0.60;;;0.60;;
21886;SDS011;11108;49.988;8.182;2023-02-28T08:56:44;1.07;;;0.67;;
21886;SDS011;11108;49.988;8.182;2023-02-28T08:59:09;0.93;;;0.70;;
21886;SDS011;11108;49.988;8.182;2023-02-28T09:01:35;0.53;;;0.53;;
21886;SDS011;11108;49.988;8.182;2023-02-28T09:04:01;0.97;;;0.53;;
21886;SDS011;11108;49.988;8.182;2023-02-28T09:06:27;3.07;;;0.67;;
21886;SDS011;11108;49.988;8.182;2023-02-28T09:08:52;2.00;;;1.00;;
21886;SDS011;11108;49.988;8.182;2023-02-28T09:11:19;1.10;;;0.83;;
21886;SDS011;11108;49.988;8.182;2023-02-28T09:13:44;3.63;;;1.00;;
21886;SDS011;11108;49.988;8.182;2023-02-28T09:16:11;2.80;;;0.90;;
21886;SDS011;11108;49.988;8.182;2023-02-28T09:18:36;0.60;;;0.60;;
21886;SDS011;11108;49.988;8.182;2023-02-28T09:21:06;1.97;;;1.00;;
21886;SDS011;11108;49.988;8.182;2023-02-28T09:23:32;1.97;;;0.77;;
21886;SDS011;11108;49.988;8.182;2023-02-28T09:25:57;1.60;;;0.73;;
21886;SDS011;11108;49.988;8.182;2023-02-28T09:28:22;1.50;;;0.93;;
21886;SDS011;11108;49.988;8.182;2023-02-28T09:30:50;1.43;;;0.97;;
21886;SDS011;11108;49.988;8.182;2023-02-28T09:33:16;0.57;;;0.57;;
21886;SDS011;11108;49.988;8.182;2023-02-28T09:35:41;1.07;;;0.70;;
21886;SDS011;11108;49.988;8.182;2023-02-28T09:38:07;1.07;;;0.90;;
21886;SDS011;11108;49.988;8.182;2023-02-28T09:40:35;1.17;;;0.90;;
21886;SDS011;11108;49.988;8.182;2023-02-28T09:43:01;3.47;;;1.13;;
21886;SDS011;11108;49.988;8.182;2023-02-28T09:45:28;1.30;;;1.20;;
21886;SDS011;11108;49.988;8.182;2023-02-28T09:47:56;0.70;;;0.70;;
21886;SDS011;11108;49.988;8.182;2023-02-28T09:50:38;2.73;;;1.00;;
21886;SDS011;11108;49.988;8.182;2023-02-28T09:53:06;2.13;;;1.00;;
21886;SDS011;11108;49.988;8.182;2023-02-28T09:55:45;2.00;;;1.03;;
21886;SDS011;11108;49.988;8.182;2023-02-28T09:58:23;1.67;;;1.10;;
21886;SDS011;11108;49.988;8.182;2023-02-28T10:01:02;6.13;;;1.00;;
21886;SDS011;11108;49.988;8.182;2023-02-28T10:06:02;1.00;;;0.90;;
21886;SDS011;11108;49.988;8.182;2023-02-28T10:08:32;0.77;;;0.70;;
21886;SDS011;11108;49.988;8.182;2023-02-28T10:11:00;0.80;;;0.80;;
21886;SDS011;11108;49.988;8.182;2023-02-28T10:16:17;0.70;;;0.70;;
21886;SDS011;11108;49.988;8.182;2023-02-28T10:18:47;1.37;;;0.80;;
21886;SDS011;11108;49.988;8.182;2023-02-28T10:21:18;1.33;;;0.87;;
21886;SDS011;11108;49.988;8.182;2023-02-28T10:23:45;1.33;;;0.77;;
21886;SDS011;11108;49.988;8.182;2023-02-28T10:26:13;2.57;;;0.97;;
21886;SDS011;11108;49.988;8.182;2023-02-28T10:28:38;0.70;;;0.70;;
21886;SDS011;11108;49.988;8.182;2023-02-28T10:31:04;0.73;;;0.70;;
21886;SDS011;11108;49.988;8.182;2023-02-28T10:33:33;0.60;;;0.60;;
21886;SDS011;11108;49.988;8.182;2023-02-28T10:35:59;1.53;;;0.90;;
21886;SDS011;11108;49.988;8.182;2023-02-28T10:38:27;0.80;;;0.80;;
21886;SDS011;11108;49.988;8.182;2023-02-28T10:41:03;1.50;;;0.93;;
21886;SDS011;11108;49.988;8.182;2023-02-28T10:43:28;1.30;;;0.80;;
21886;SDS011;11108;49.988;8.182;2023-02-28T10:48:32;2.00;;;1.10;;
21886;SDS011;11108;49.988;8.182;2023-02-28T10:50:58;0.80;;;0.80;;
21886;SDS011;11108;49.988;8.182;2023-02-28T10:55:56;0.90;;;0.90;;
21886;SDS011;11108;49.988;8.182;2023-02-28T10:58:22;1.53;;;1.43;;
21886;SDS011;11108;49.988;8.182;2023-02-28T11:00:48;1.67;;;1.17;;
21886;SDS011;11108;49.988;8.182;2023-02-28T11:06:13;0.70;;;0.70;;
21886;SDS011;11108;49.988;8.182;2023-02-28T11:08:47;1.40;;;1.30;;
21886;SDS011;11108;49.988;8.182;2023-02-28T11:11:12;1.83;;;0.90;;
21886;SDS011;11108;49.988;8.182;2023-02-28T11:13:38;0.90;;;0.90;;
21886;SDS011;11108;49.988;8.182;2023-02-28T11:16:04;1.37;;;1.00;;
21886;SDS011;11108;49.988;8.182;2023-02-28T11:20:55;0.87;;;0.87;;
21886;SDS011;11108;49.988;8.182;2023-02-28T11:23:22;1.17;;;0.90;;
21886;SDS011;11108;49.988;8.182;2023-02-28T11:25:50;0.80;;;0.80;;
21886;SDS011;11108;49.988;8.182;2023-02-28T11:28:27;1.20;;;1.13;;
21886;SDS011;11108;49.988;8.182;2023-02-28T11:31:26;1.10;;;0.87;;
21886;SDS011;11108;49.988;8.182;2023-02-28T11:33:47;0.80;;;0.80;;
21886;SDS011;11108;49.988;8.182;2023-02-28T11:38:44;1.17;;;1.10;;
21886;SDS011;11108;49.988;8.182;2023-02-28T11:41:14;0.87;;;0.87;;
21886;SDS011;11108;49.988;8.182;2023-02-28T11:59:04;1.17;;;0.80;;
21886;SDS011;11108;49.988;8.182;2023-02-28T12:11:55;1.00;;;1.00;;
21886;SDS011;11108;49.988;8.182;2023-02-28T12:14:25;1.43;;;1.00;;
21886;SDS011;11108;49.988;8.182;2023-02-28T12:22:05;1.07;;;1.07;;
21886;SDS011;11108;49.988;8.182;2023-02-28T12:27:13;1.03;;;0.97;;
21886;SDS011;11108;49.988;8.182;2023-02-28T12:29:46;1.10;;;1.10;;
21886;SDS011;11108;49.988;8.182;2023-02-28T12:32:13;1.47;;;1.10;;
21886;SDS011;11108;49.988;8.182;2023-02-28T12:34:44;1.13;;;1.00;;
21886;SDS011;11108;49.988;8.182;2023-02-28T12:37:14;1.10;;;1.00;;
21886;SDS011;11108;49.988;8.182;2023-02-28T12:39:43;1.53;;;1.27;;
21886;SDS011;11108;49.988;8.182;2023-02-28T12:42:10;1.00;;;1.00;;
21886;SDS011;11108;49.988;8.182;2023-02-28T12:44:40;1.33;;;1.00;;
21886;SDS011;11108;49.988;8.182;2023-02-28T12:47:10;4.70;;;1.40;;
21886;SDS011;11108;49.988;8.182;2023-02-28T12:49:59;1.40;;;1.30;;
21886;SDS011;11108;49.988;8.182;2023-02-28T12:52:25;1.30;;;1.20;;
21886;SDS011;11108;49.988;8.182;2023-02-28T12:57:22;1.40;;;1.30;;
21886;SDS011;11108;49.988;8.182;2023-02-28T13:00:24;1.20;;;1.10;;
21886;SDS011;11108;49.988;8.182;2023-02-28T13:02:51;0.90;;;0.90;;
21886;SDS011;11108;49.988;8.182;2023-02-28T13:10:48;1.30;;;1.20;;
21886;SDS011;11108;49.988;8.182;2023-02-28T13:13:24;1.67;;;1.10;;
21886;SDS011;11108;49.988;8.182;2023-02-28T13:20:57;1.80;;;1.23;;
21886;SDS011;11108;49.988;8.182;2023-02-28T13:23:56;1.43;;;1.30;;
21886;SDS011;11108;49.988;8.182;2023-02-28T13:26:17;1.13;;;1.03;;
21886;SDS011;11108;49.988;8.182;2023-02-28T13:31:14;1.90;;;1.30;;
21886;SDS011;11108;49.988;8.182;2023-02-28T13:38:42;1.20;;;1.20;;
21886;SDS011;11108;49.988;8.182;2023-02-28T13:46:31;1.40;;;1.30;;
21886;SDS011;11108;49.988;8.182;2023-02-28T13:49:17;1.20;;;1.10;;
21886;SDS011;11108;49.988;8.182;2023-02-28T13:51:43;1.30;;;1.10;;
21886;SDS011;11108;49.988;8.182;2023-02-28T13:54:55;1.23;;;1.13;;
21886;SDS011;11108;49.988;8.182;2023-02-28T13:57:00;1.53;;;1.20;;
21886;SDS011;11108;49.988;8.182;2023-02-28T14:02:03;1.87;;;1.47;;
21886;SDS011;11108;49.988;8.182;2023-02-28T14:07:02;1.33;;;1.20;;
21886;SDS011;11108;49.988;8.182;2023-02-28T14:09:29;0.90;;;0.90;;
21886;SDS011;11108;49.988;8.182;2023-02-28T14:11:55;1.37;;;1.20;;
21886;SDS011;11108;49.988;8.182;2023-02-28T14:17:05;1.27;;;1.17;;
21886;SDS011;11108;49.988;8.182;2023-02-28T14:19:32;1.50;;;1.50;;
21886;SDS011;11108;49.988;8.182;2023-02-28T14:22:16;2.20;;;1.40;;
21886;SDS011;11108;49.988;8.182;2023-02-28T14:27:30;1.67;;;1.50;;
21886;SDS011;11108;49.988;8.182;2023-02-28T14:37:47;2.17;;;1.60;;
21886;SDS011;11108;49.988;8.182;2023-02-28T14:40:17;1.40;;;1.30;;
21886;SDS011;11108;49.988;8.182;2023-02-28T14:42:48;1.47;;;1.37;;
21886;SDS011;11108;49.988;8.182;2023-02-28T14:45:19;1.60;;;1.50;;
21886;SDS011;11108;49.988;8.182;2023-02-28T14:47:45;1.23;;;1.23;;
21886;SDS011;11108;49.988;8.182;2023-02-28T14:50:17;1.60;;;1.50;;
21886;SDS011;11108;49.988;8.182;2023-02-28T14:52:43;1.50;;;1.40;;
21886;SDS011;11108;49.988;8.182;2023-02-28T14:55:17;1.27;;;1.27;;
21886;SDS011;11108;49.988;8.182;2023-02-28T14:57:53;1.60;;;1.50;;
21886;SDS011;11108;49.988;8.182;2023-02-28T15:02:43;1.20;;;1.15;;
21886;SDS011;11108;49.988;8.182;2023-02-28T15:07:37;1.23;;;1.23;;
21886;SDS011;11108;49.988;8.182;2023-02-28T15:10:22;1.70;;;1.60;;
21886;SDS011;11108;49.988;8.182;2023-02-28T15:12:52;1.40;;;1.30;;
21886;SDS011;11108;49.988;8.182;2023-02-28T15:15:18;1.27;;;1.27;;
21886;SDS011;11108;49.988;8.182;2023-02-28T15:17:48;1.20;;;1.20;;
21886;SDS011;11108;49.988;8.182;2023-02-28T15:20:14;1.30;;;1.30;;
21886;SDS011;11108;49.988;8.182;2023-02-28T15:22:40;2.03;;;1.90;;
21886;SDS011;11108;49.988;8.182;2023-02-28T15:25:06;1.23;;;1.23;;
21886;SDS011;11108;49.988;8.182;2023-02-28T15:27:33;1.47;;;1.47;;
21886;SDS011;11108;49.988;8.182;2023-02-28T15:30:05;1.50;;;1.47;;
21886;SDS011;11108;49.988;8.182;2023-02-28T15:32:35;1.80;;;1.70;;
21886;SDS011;11108;49.988;8.182;2023-02-28T15:35:46;1.43;;;1.27;;
21886;SDS011;11108;49.988;8.182;2023-02-28T15:37:47;1.40;;;1.30;;
21886;SDS011;11108;49.988;8.182;2023-02-28T15:42:38;1.33;;;1.33;;
21886;SDS011;11108;49.988;8.182;2023-02-28T15:45:03;1.50;;;1.47;;
21886;SDS011;11108;49.988;8.182;2023-02-28T15:47:29;1.90;;;1.70;;
21886;SDS011;11108;49.988;8.182;2023-02-28T15:49:58;1.70;;;1.60;;
21886;SDS011;11108;49.988;8.182;2023-02-28T15:52:26;1.63;;;1.13;;
21886;SDS011;11108;49.988;8.182;2023-02-28T15:54:52;1.57;;;1.47;;
21886;SDS011;11108;49.988;8.182;2023-02-28T15:57:21;1.47;;;1.47;;
21886;SDS011;11108;49.988;8.182;2023-02-28T15:59:54;1.60;;;1.50;;
21886;SDS011;11108;49.988;8.182;2023-02-28T16:02:22;1.27;;;1.17;;
21886;SDS011;11108;49.988;8.182;2023-02-28T16:04:58;2.00;;;1.37;;
21886;SDS011;11108;49.988;8.182;2023-02-28T16:07:23;1.33;;;1.33;;
21886;SDS011;11108;49.988;8.182;2023-02-28T16:09:49;1.43;;;1.33;;
21886;SDS011;11108;49.988;8.182;2023-02-28T16:12:15;1.40;;;1.30;;
21886;SDS011;11108;49.988;8.182;2023-02-28T16:14:40;1.40;;;1.30;;
21886;SDS011;11108;49.988;8.182;2023-02-28T16:17:07;1.73;;;1.63;;
21886;SDS011;11108;49.988;8.182;2023-02-28T16:19:35;1.80;;;1.40;;
21886;SDS011;11108;49.988;8.182;2023-02-28T16:22:01;1.57;;;1.47;;
21886;SDS011;11108;49.988;8.182;2023-02-28T16:24:26;1.97;;;1.70;;
21886;SDS011;11108;49.988;8.182;2023-02-28T16:26:52;1.33;;;1.33;;
21886;SDS011;11108;49.988;8.182;2023-02-28T16:29:21;1.57;;;1.47;;
21886;SDS011;11108;49.988;8.182;2023-02-28T16:31:47;2.13;;;1.63;;
21886;SDS011;11108;49.988;8.182;2023-02-28T16:34:13;1.60;;;1.43;;
21886;SDS011;11108;49.988;8.182;2023-02-28T16:36:38;2.60;;;1.37;;
21886;SDS011;11108;49.988;8.182;2023-02-28T16:39:03;2.93;;;1.63;;
21886;SDS011;11108;49.988;8.182;2023-02-28T16:41:29;2.87;;;1.60;;
21886;SDS011;11108;49.988;8.182;2023-02-28T16:43:55;1.80;;;1.70;;
21886;SDS011;11108;49.988;8.182;2023-02-28T16:46:30;2.97;;;1.60;;
21886;SDS011;11108;49.988;8.182;2023-02-28T16:48:56;2.23;;;1.27;;
21886;SDS011;11108;49.988;8.182;2023-02-28T16:51:21;2.63;;;1.53;;
21886;SDS011;11108;49.988;8.182;2023-02-28T16:53:46;2.97;;;1.30;;
21886;SDS011;11108;49.988;8.182;2023-02-28T16:56:16;1.70;;;1.60;;
21886;SDS011;11108;49.988;8.182;2023-02-28T16:58:42;1.53;;;1.40;;
21886;SDS011;11108;49.988;8.182;2023-02-28T17:01:07;3.07;;;1.87;;
21886;SDS011;11108;49.988;8.182;2023-02-28T17:03:33;1.47;;;1.37;;
21886;SDS011;11108;49.988;8.182;2023-02-28T17:05:58;2.20;;;1.70;;